Time;durP1;ratioP1;P1;durP2;ratioP2;P2;SDS_P1;SDS_P2;PMS_P1;PMS_P2;Temp;Humidity;BMP_temperature;BMP_pressure;BME280_temperature;BME280_humidity;BME280_pressure;Samples;Min_cycle;Max_cycle;Signal;HPM_P1;HPM_P2
2022/07/16 00:01:47;;;;;;;1.25;0.73;;;15.50;99.90;;;;;;5015238;28;20049;-75
2022/07/16 00:04:16;;;;;;;0.75;0.75;;;15.50;99.90;;;;;;4999483;28;20038;-75
2022/07/16 00:06:43;;;;;;;0.75;0.60;;;15.60;99.90;;;;;;5015223;28;20115;-74
2022/07/16 00:09:10;;;;;;;1.83;0.70;;;15.40;99.90;;;;;;4999035;28;20045;-75
2022/07/16 00:11:36;;;;;;;2.45;0.73;;;15.40;99.90;;;;;;4999016;28;20076;-74
2022/07/16 00:14:02;;;;;;;1.08;0.70;;;15.40;99.90;;;;;;5015261;28;20473;-74
2022/07/16 00:16:28;;;;;;;0.90;0.60;;;15.40;99.90;;;;;;4982541;28;20049;-75
2022/07/16 00:21:37;;;;;;;0.80;0.65;;;15.40;99.90;;;;;;5001174;28;20052;-75
2022/07/16 00:24:06;;;;;;;1.55;0.80;;;15.40;99.90;;;;;;4998717;28;20429;-75
2022/07/16 00:26:33;;;;;;;1.75;0.93;;;15.40;99.90;;;;;;5014905;28;20128;-75
2022/07/16 00:28:59;;;;;;;1.52;0.77;;;15.40;99.90;;;;;;5015047;28;20037;-75
2022/07/16 00:31:24;;;;;;;0.60;0.60;;;15.40;99.90;;;;;;4982595;28;20128;-75
2022/07/16 00:33:50;;;;;;;1.48;0.80;;;15.50;99.90;;;;;;5014930;28;20045;-75
2022/07/16 00:36:16;;;;;;;3.33;0.68;;;15.50;99.90;;;;;;4982402;28;20088;-75
2022/07/16 00:38:41;;;;;;;0.93;0.70;;;15.50;99.90;;;;;;5015025;28;20091;-75
2022/07/16 00:41:16;;;;;;;2.22;1.13;;;15.60;99.90;;;;;;4998937;28;20056;-75
2022/07/16 00:43:53;;;;;;;1.77;0.65;;;15.60;99.90;;;;;;4999751;28;20057;-74
2022/07/16 00:46:19;;;;;;;0.70;0.60;;;15.60;99.90;;;;;;4998531;28;20045;-74
2022/07/16 00:48:46;;;;;;;1.90;0.80;;;15.60;99.90;;;;;;4982385;28;20112;-74
2022/07/16 00:51:13;;;;;;;1.08;0.73;;;15.70;99.90;;;;;;4998410;28;20033;-75
2022/07/16 00:53:39;;;;;;;0.90;0.52;;;15.70;99.90;;;;;;5014826;28;20042;-75
2022/07/16 00:56:10;;;;;;;3.03;0.60;;;15.70;99.90;;;;;;5014765;28;20041;-75
2022/07/16 00:58:36;;;;;;;;;;;15.70;99.90;;;;;;4999058;28;20104;-73
2022/07/16 01:01:02;;;;;;;1.27;0.80;;;15.70;99.90;;;;;;5014762;28;19917;-75
2022/07/16 01:03:29;;;;;;;0.98;0.70;;;15.70;99.90;;;;;;5014663;28;20060;-74
2022/07/16 01:05:55;;;;;;;1.40;0.80;;;15.70;99.90;;;;;;5014867;28;20045;-75
2022/07/16 01:08:21;;;;;;;0.68;0.68;;;15.80;99.90;;;;;;5002059;28;20059;-75
2022/07/16 01:10:47;;;;;;;0.57;0.57;;;15.80;99.90;;;;;;5002024;28;20045;-75
2022/07/16 01:13:15;;;;;;;1.15;0.70;;;15.80;99.90;;;;;;5001973;28;20456;-75
2022/07/16 01:15:41;;;;;;;1.25;1.05;;;15.80;99.90;;;;;;5018162;28;20057;-75
2022/07/16 01:18:07;;;;;;;3.38;0.88;;;15.80;99.90;;;;;;5002089;28;20082;-75
2022/07/16 01:20:32;;;;;;;1.27;0.88;;;15.80;99.90;;;;;;5001790;28;20459;-75
2022/07/16 01:22:59;;;;;;;1.80;1.05;;;15.70;99.90;;;;;;5001872;28;20124;-74
2022/07/16 01:25:26;;;;;;;0.75;0.50;;;15.60;99.90;;;;;;5001594;28;20080;-75
2022/07/16 01:27:52;;;;;;;1.70;1.00;;;15.60;99.90;;;;;;5018021;28;20050;-74
2022/07/16 01:30:18;;;;;;;0.70;0.60;;;15.50;99.90;;;;;;5018012;28;20409;-75
2022/07/16 01:32:43;;;;;;;1.13;0.82;;;15.50;99.90;;;;;;5001651;28;20072;-75
2022/07/16 01:35:10;;;;;;;1.83;1.13;;;15.40;99.90;;;;;;5017879;28;20138;-74
2022/07/16 01:37:36;;;;;;;1.88;1.00;;;15.40;99.90;;;;;;5001388;28;20041;-75
2022/07/16 01:40:02;;;;;;;1.77;1.13;;;15.40;99.90;;;;;;5018070;28;20041;-75
2022/07/16 01:42:27;;;;;;;1.35;1.00;;;15.40;99.90;;;;;;5001757;28;20107;-74
2022/07/16 01:44:53;;;;;;;2.38;1.20;;;15.40;99.90;;;;;;5001372;28;20057;-75
2022/07/16 01:47:19;;;;;;;1.60;1.17;;;15.40;99.90;;;;;;5017659;28;20548;-74
2022/07/16 01:49:45;;;;;;;1.95;1.10;;;15.30;99.90;;;;;;5017875;28;20045;-74
2022/07/16 01:52:14;;;;;;;2.08;1.13;;;15.30;99.90;;;;;;5001540;28;20401;-74
2022/07/16 01:54:53;;;;;;;1.45;1.00;;;15.30;99.90;;;;;;5001246;28;20075;-74
2022/07/16 01:57:21;;;;;;;1.83;1.20;;;15.30;99.90;;;;;;5017910;28;20107;-74
2022/07/16 01:59:47;;;;;;;1.98;1.20;;;15.20;99.90;;;;;;4985189;28;20378;-74
2022/07/16 02:02:13;;;;;;;2.67;1.08;;;15.20;99.90;;;;;;5001224;28;20045;-74
2022/07/16 02:04:41;;;;;;;2.05;0.90;;;15.20;99.90;;;;;;5017529;28;20084;-74
2022/07/16 02:07:07;;;;;;;1.70;1.13;;;15.20;99.90;;;;;;5017387;28;20033;-75
2022/07/16 02:09:33;;;;;;;1.27;0.85;;;15.30;99.90;;;;;;5001301;28;20041;-75
2022/07/16 02:11:59;;;;;;;1.40;0.95;;;15.40;99.90;;;;;;5017258;28;20034;-75
2022/07/16 02:14:25;;;;;;;1.05;0.80;;;15.30;99.90;;;;;;5017028;28;20060;-75
2022/07/16 02:16:51;;;;;;;0.80;0.70;;;15.20;99.90;;;;;;5000475;28;20497;-74
2022/07/16 02:19:17;;;;;;;1.42;0.95;;;15.20;99.90;;;;;;4984628;28;20033;-75
2022/07/16 02:21:42;;;;;;;0.90;0.70;;;15.20;99.90;;;;;;5017267;28;20037;-75
2022/07/16 02:24:08;;;;;;;0.57;0.55;;;15.10;99.90;;;;;;4984537;28;20037;-75
2022/07/16 02:26:34;;;;;;;1.30;0.73;;;15.10;99.90;;;;;;5000490;28;20050;-75
2022/07/16 02:28:59;;;;;;;1.65;0.70;;;15.10;99.90;;;;;;5000719;28;20419;-75
2022/07/16 02:31:25;;;;;;;1.80;1.00;;;15.10;99.90;;;;;;5000540;28;20041;-75
2022/07/16 02:33:51;;;;;;;1.33;0.68;;;15.00;99.90;;;;;;5000418;28;20128;-74
2022/07/16 02:36:17;;;;;;;1.33;0.93;;;15.10;99.90;;;;;;5016763;28;20492;-75
2022/07/16 02:38:42;;;;;;;0.75;0.70;;;15.10;99.90;;;;;;5016641;28;20496;-75
2022/07/16 02:41:08;;;;;;;1.17;0.80;;;15.00;99.90;;;;;;5016633;28;20060;-75
2022/07/16 02:43:34;;;;;;;3.85;0.60;;;15.30;99.90;;;;;;4984085;28;20489;-74
2022/07/16 02:45:59;;;;;;;0.43;0.43;;;15.00;99.90;;;;;;4984118;28;20064;-74
2022/07/16 02:48:25;;;;;;;1.27;0.80;;;15.00;99.90;;;;;;5000166;28;20046;-74
2022/07/16 02:50:51;;;;;;;1.88;0.93;;;15.00;99.90;;;;;;5000479;28;20041;-74
2022/07/16 02:53:16;;;;;;;1.23;0.80;;;15.00;99.90;;;;;;4983892;28;20069;-74
2022/07/16 02:55:42;;;;;;;0.77;0.73;;;15.20;99.90;;;;;;5016387;28;20429;-74
2022/07/16 02:58:08;;;;;;;0.93;0.60;;;15.00;99.90;;;;;;5016440;28;20041;-74
2022/07/16 03:00:34;;;;;;;2.70;0.52;;;15.00;99.90;;;;;;4983732;28;20049;-75
2022/07/16 03:02:59;;;;;;;2.00;0.80;;;14.90;99.90;;;;;;5000043;28;20075;-75
2022/07/16 03:05:26;;;;;;;0.82;0.60;;;14.90;99.90;;;;;;5016151;28;20493;-75
2022/07/16 03:07:52;;;;;;;0.70;0.70;;;15.00;99.90;;;;;;4999848;28;20094;-75
2022/07/16 03:10:18;;;;;;;1.00;0.65;;;14.80;99.90;;;;;;4999812;28;20446;-74
2022/07/16 03:12:43;;;;;;;1.73;0.70;;;14.90;99.90;;;;;;5016098;28;20041;-74
2022/07/16 03:15:11;;;;;;;1.15;0.73;;;14.90;99.90;;;;;;5015868;28;20061;-75
2022/07/16 03:17:37;;;;;;;0.50;0.50;;;14.90;99.90;;;;;;4999661;28;20041;-74
2022/07/16 03:20:03;;;;;;;1.55;0.80;;;14.90;99.90;;;;;;4983634;28;20071;-74
2022/07/16 03:22:29;;;;;;;2.10;0.80;;;14.80;99.90;;;;;;4999591;28;20037;-75
2022/07/16 03:24:54;;;;;;;0.50;0.50;;;14.80;99.90;;;;;;4999667;28;20048;-75
2022/07/16 03:27:20;;;;;;;0.60;0.60;;;14.70;99.90;;;;;;5015825;28;20053;-74
2022/07/16 03:29:46;;;;;;;2.70;0.80;;;14.70;99.90;;;;;;4998839;28;20084;-74
2022/07/16 03:32:13;;;;;;;0.50;0.50;;;14.70;99.90;;;;;;4983262;28;20072;-75
2022/07/16 03:34:38;;;;;;;1.15;0.93;;;14.60;99.90;;;;;;4999532;28;20440;-75
2022/07/16 03:37:04;;;;;;;0.77;0.60;;;14.50;99.90;;;;;;5015707;28;20037;-75
2022/07/16 03:39:30;;;;;;;1.23;0.70;;;14.50;99.90;;;;;;4999338;28;20401;-75
2022/07/16 03:41:55;;;;;;;1.25;0.70;;;14.50;99.90;;;;;;5015505;28;20559;-75
2022/07/16 03:44:21;;;;;;;1.85;0.70;;;14.50;99.90;;;;;;5015867;28;20045;-74
2022/07/16 03:46:46;;;;;;;1.00;0.90;;;14.40;99.90;;;;;;5015481;28;20098;-75
2022/07/16 03:49:12;;;;;;;1.30;0.63;;;14.40;99.90;;;;;;5015769;28;20048;-74
2022/07/16 03:51:38;;;;;;;0.50;0.50;;;14.40;99.90;;;;;;4999082;28;20041;-74
2022/07/16 03:54:04;;;;;;;1.15;0.68;;;14.30;99.90;;;;;;5015361;28;20497;-75
2022/07/16 03:56:31;;;;;;;2.80;0.95;;;14.30;99.90;;;;;;4999011;28;20041;-75
2022/07/16 03:58:57;;;;;;;1.83;0.70;;;14.40;99.90;;;;;;5016297;28;20045;-74
2022/07/16 04:01:23;;;;;;;0.60;0.60;;;14.30;99.90;;;;;;5015325;28;20045;-75
2022/07/16 04:03:49;;;;;;;2.05;1.23;;;14.30;99.90;;;;;;5015555;28;20037;-75
2022/07/16 04:06:15;;;;;;;0.63;0.63;;;14.30;99.90;;;;;;4998878;28;20045;-75
2022/07/16 04:08:41;;;;;;;1.05;0.80;;;14.30;99.90;;;;;;4998795;28;20065;-75
2022/07/16 04:11:06;;;;;;;0.73;0.60;;;14.30;99.90;;;;;;4998964;28;20034;-75
2022/07/16 04:13:32;;;;;;;1.17;0.70;;;14.30;99.90;;;;;;4982739;28;20038;-75
2022/07/16 04:15:58;;;;;;;1.33;0.85;;;14.30;99.90;;;;;;5014989;28;20470;-75
2022/07/16 04:18:24;;;;;;;1.67;0.60;;;14.30;99.90;;;;;;5015148;28;20136;-75
2022/07/16 04:20:49;;;;;;;2.67;0.80;;;14.30;99.90;;;;;;4998805;28;20042;-75
2022/07/16 04:23:18;;;;;;;0.68;0.60;;;14.30;99.90;;;;;;5015192;28;20085;-75
2022/07/16 04:25:44;;;;;;;4.10;0.80;;;14.30;99.90;;;;;;4998848;28;20469;-73
2022/07/16 04:28:10;;;;;;;2.08;0.75;;;14.30;99.90;;;;;;4998830;28;20077;-74
2022/07/16 04:30:35;;;;;;;1.23;0.77;;;14.20;99.90;;;;;;5015279;28;20037;-73
2022/07/16 04:33:02;;;;;;;1.27;0.85;;;14.20;99.90;;;;;;4998720;28;20041;-72
2022/07/16 04:35:28;;;;;;;2.78;0.68;;;14.20;99.90;;;;;;4998773;28;20041;-74
2022/07/16 04:37:54;;;;;;;0.90;0.68;;;14.60;99.90;;;;;;4966704;28;20382;-72
2022/07/16 04:40:19;;;;;;;0.75;0.68;;;14.20;99.90;;;;;;4999632;28;20044;-72
2022/07/16 04:42:45;;;;;;;1.30;0.70;;;14.30;99.90;;;;;;4986390;28;20052;-72
2022/07/16 04:45:12;;;;;;;1.92;0.98;;;14.30;99.90;;;;;;5018796;28;20064;-72
2022/07/16 04:47:39;;;;;;;0.68;0.50;;;14.30;99.90;;;;;;5019091;28;20128;-73
2022/07/16 04:50:06;;;;;;;1.42;0.65;;;14.50;99.90;;;;;;5002410;28;20139;-73
2022/07/16 04:52:31;;;;;;;2.08;0.80;;;14.40;99.90;;;;;;5018954;28;20510;-73
2022/07/16 04:55:00;;;;;;;1.65;0.90;;;14.40;99.90;;;;;;5018676;28;20041;-73
2022/07/16 04:57:26;;;;;;;2.25;0.90;;;14.50;99.90;;;;;;5018618;28;20405;-73
2022/07/16 04:59:53;;;;;;;0.57;0.40;;;14.50;99.90;;;;;;5018864;28;20127;-74
2022/07/16 05:05:03;;;;;;;0.40;0.40;;;14.60;99.90;;;;;;5018363;28;20072;-78
2022/07/16 05:07:29;;;;;;;1.55;0.70;;;14.60;99.90;;;;;;5018728;28;20037;-74
2022/07/16 05:09:55;;;;;;;1.75;1.00;;;14.70;99.90;;;;;;4985964;28;20180;-74
2022/07/16 05:12:21;;;;;;;4.43;1.30;;;14.70;99.90;;;;;;5002275;28;20034;-74
2022/07/16 05:14:46;;;;;;;5.30;1.20;;;14.80;99.90;;;;;;5001793;28;20128;-73
2022/07/16 05:17:12;;;;;;;0.85;0.60;;;14.80;99.90;;;;;;5018238;28;20104;-72
2022/07/16 05:19:38;;;;;;;0.68;0.57;;;14.90;99.90;;;;;;5018291;28;20045;-73
2022/07/16 05:22:05;;;;;;;2.78;0.80;;;15.00;99.90;;;;;;5001867;28;20156;-74
2022/07/16 05:24:32;;;;;;;2.45;1.00;;;15.00;99.90;;;;;;5002257;28;20405;-74
2022/07/16 05:26:58;;;;;;;1.88;0.82;;;15.00;99.90;;;;;;5018320;28;20120;-73
2022/07/16 05:29:24;;;;;;;0.90;0.63;;;15.10;99.90;;;;;;5017997;28;20092;-73
2022/07/16 05:31:50;;;;;;;4.90;0.95;;;15.10;99.90;;;;;;5017941;28;20046;-72
2022/07/16 05:34:16;;;;;;;3.03;0.93;;;15.00;99.90;;;;;;5017940;28;20405;-73
2022/07/16 05:36:42;;;;;;;2.50;0.68;;;15.00;99.90;;;;;;5018068;28;20049;-73
2022/07/16 05:39:07;;;;;;;1.48;0.70;;;14.90;99.90;;;;;;5001465;28;20128;-73
2022/07/16 05:41:33;;;;;;;3.60;0.60;;;14.90;99.90;;;;;;5017826;28;20045;-72
2022/07/16 05:44:00;;;;;;;2.00;0.80;;;15.00;99.90;;;;;;5017847;28;20132;-73
2022/07/16 05:46:26;;;;;;;0.82;0.50;;;15.10;99.90;;;;;;4985217;28;20046;-72
2022/07/16 05:48:51;;;;;;;0.98;0.65;;;15.30;99.90;;;;;;5001767;28;20139;-74
2022/07/16 05:51:17;;;;;;;1.45;0.60;;;15.40;99.90;;;;;;5017837;28;20065;-74
2022/07/16 05:53:43;;;;;;;1.20;0.70;;;15.40;99.90;;;;;;4984807;28;20053;-78
2022/07/16 05:56:08;;;;;;;1.13;0.50;;;15.50;99.90;;;;;;5001224;28;20128;-73
2022/07/16 05:58:34;;;;;;;2.20;0.55;;;15.60;99.90;;;;;;5001401;28;20053;-75
2022/07/16 06:01:00;;;;;;;0.82;0.55;;;15.70;99.90;;;;;;5001174;28;20037;-75
2022/07/16 06:03:26;;;;;;;0.85;0.55;;;15.80;99.90;;;;;;5001405;28;20045;-77
2022/07/16 06:05:51;;;;;;;2.35;0.40;;;15.90;99.90;;;;;;5017255;28;20041;-77
2022/07/16 06:08:17;;;;;;;1.13;0.50;;;16.20;99.90;;;;;;5017357;28;20045;-77
2022/07/16 06:10:43;;;;;;;3.70;0.70;;;16.00;99.90;;;;;;5001380;28;20049;-77
2022/07/16 06:13:10;;;;;;;4.47;0.70;;;16.00;99.90;;;;;;5000902;28;20038;-77
2022/07/16 06:15:36;;;;;;;1.60;0.45;;;16.60;99.90;;;;;;5000800;28;20057;-77
2022/07/16 06:18:02;;;;;;;1.08;0.45;;;16.20;99.90;;;;;;5000809;28;20507;-77
2022/07/16 06:20:27;;;;;;;3.17;0.50;;;16.50;99.90;;;;;;5000756;28;20095;-77
2022/07/16 06:22:54;;;;;;;0.45;0.45;;;16.70;99.90;;;;;;5017355;28;20107;-77
2022/07/16 06:25:20;;;;;;;0.85;0.45;;;;;;;;;;4984533;28;20041;-77
2022/07/16 06:27:47;;;;;;;2.20;0.65;;;;;;;;;;5000601;28;20033;-77
2022/07/16 06:30:13;;;;;;;1.77;0.60;;;;;;;;;;5000672;28;20042;-78
2022/07/16 06:32:40;;;;;;;1.02;0.50;;;;;;;;;;5000470;28;20378;-77
2022/07/16 06:35:06;;;;;;;3.40;0.43;;;;;;;;;;5000922;28;20052;-77
2022/07/16 06:37:32;;;;;;;0.77;0.47;;;;;;;;;;5000417;28;20041;-77
2022/07/16 06:39:59;;;;;;;2.50;0.82;;;;;;;;;;5000613;28;20037;-77
2022/07/16 06:42:25;;;;;;;0.32;0.32;;;;;;;;;;5016894;28;20108;-77
2022/07/16 06:44:51;;;;;;;2.33;0.73;;;;;;;;;;5000294;28;20049;-77
2022/07/16 06:47:17;;;;;;;1.20;0.35;;;;;;;;;;4984130;28;20083;-77
2022/07/16 06:49:43;;;;;;;1.30;0.80;;;;;;;;;;4984141;28;20440;-77
2022/07/16 06:52:09;;;;;;;1.17;0.40;;;;;;;;;;5016576;28;20116;-75
2022/07/16 06:54:35;;;;;;;3.38;0.85;;;;;;;;;;5000076;28;20041;-76
2022/07/16 06:57:01;;;;;;;1.23;0.50;;;;;;;;;;5000109;28;20048;-76
2022/07/16 06:59:27;;;;;;;0.57;0.40;;;;;;;;;;5016329;28;20034;-75
2022/07/16 07:01:53;;;;;;;2.42;0.68;;;;;;;;;;4999885;28;20033;-75
2022/07/16 07:04:19;;;;;;;1.23;0.35;;;;;;;;;;4983391;28;20528;-75
2022/07/16 07:06:45;;;;;;;1.52;0.30;;;;;;;;;;4999659;28;20104;-74
2022/07/16 07:09:11;;;;;;;3.05;0.40;;;;;;;;;;5016116;28;20042;-76
2022/07/16 07:11:38;;;;;;;3.47;0.47;;;;;;;;;;5016384;28;20076;-74
2022/07/16 07:14:04;;;;;;;1.02;0.40;;;;;;;;;;5016055;28;20053;-76
2022/07/16 07:16:30;;;;;;;0.45;0.40;;;;;;;;;;5016420;28;20485;-75
2022/07/16 07:18:56;;;;;;;2.38;0.60;;;;;;;;;;5016187;28;20128;-75
2022/07/16 07:21:22;;;;;;;1.40;0.40;;;;;;;;;;5000286;28;20128;-79
2022/07/16 07:23:48;;;;;;;1.60;0.57;;;;;;;;;;4999503;28;20096;-79
2022/07/16 07:26:14;;;;;;;0.43;0.43;;;17.70;99.90;;;;;;5015880;28;20512;-80
2022/07/16 07:28:40;;;;;;;0.30;0.30;;;18.10;99.90;;;;;;4983364;28;20138;-79
2022/07/16 07:31:06;;;;;;;1.08;0.40;;;17.70;99.90;;;;;;4999466;28;20474;-80
2022/07/16 07:33:32;;;;;;;3.22;0.50;;;17.70;99.90;;;;;;4983190;28;20120;-80
2022/07/16 07:35:58;;;;;;;1.20;0.50;;;17.20;99.90;;;;;;4999246;28;20055;-73
2022/07/16 07:38:23;;;;;;;0.20;0.20;;;17.20;99.90;;;;;;4983344;28;20405;-74
2022/07/16 07:40:49;;;;;;;0.50;0.50;;;16.70;99.90;;;;;;5016735;28;20045;-74
2022/07/16 07:43:16;;;;;;;1.58;0.30;;;;;;;;;;4999296;28;20041;-74
2022/07/16 07:45:42;;;;;;;1.05;0.50;;;;;;;;;;4983263;28;20046;-74
2022/07/16 07:48:09;;;;;;;0.90;0.40;;;;;;;;;;5015430;28;20048;-76
2022/07/16 07:50:35;;;;;;;0.50;0.50;;;16.80;99.90;;;;;;5015463;28;20041;-75
2022/07/16 07:53:00;;;;;;;1.02;0.43;;;16.60;99.90;;;;;;4999292;28;20045;-75
2022/07/16 07:55:26;;;;;;;1.45;0.40;;;;;;;;;;5015215;28;20042;-76
2022/07/16 07:57:53;;;;;;;0.88;0.73;;;16.50;99.90;;;;;;4998961;28;20084;-75
2022/07/16 08:00:19;;;;;;;0.63;0.40;;;16.40;99.90;;;;;;4998969;28;20068;-76
2022/07/16 08:02:47;;;;;;;0.47;0.40;;;16.60;99.90;;;;;;5015267;28;20038;-75
2022/07/16 08:05:13;;;;;;;0.30;0.30;;;16.90;99.90;;;;;;4999183;28;20042;-76
2022/07/16 08:07:39;;;;;;;0.98;0.30;;;17.20;99.90;;;;;;5015284;28;20047;-76
2022/07/16 08:10:06;;;;;;;2.17;0.50;;;17.40;99.90;;;;;;5015182;28;20488;-75
2022/07/16 08:12:32;;;;;;;1.58;0.40;;;17.80;99.90;;;;;;4999285;28;20041;-75
2022/07/16 08:14:58;;;;;;;0.55;0.30;;;;;;;;;;4995380;28;20064;-75
2022/07/16 08:17:23;;;;;;;0.45;0.40;;;18.10;99.90;;;;;;5011973;28;20053;-76
2022/07/16 08:19:49;;;;;;;2.50;0.47;;;18.50;99.90;;;;;;5011804;28;20034;-75
2022/07/16 08:22:15;;;;;;;0.20;0.20;;;18.80;99.90;;;;;;4995391;28;20481;-76
2022/07/16 08:27:26;;;;;;;0.50;0.30;;;;;;;;;;5011771;28;20105;-76
2022/07/16 08:29:52;;;;;;;0.95;0.30;;;;;;;;;;4995670;28;20120;-76
2022/07/16 08:32:17;;;;;;;0.30;0.30;;;18.50;99.90;;;;;;5011708;28;20088;-76
2022/07/16 08:34:43;;;;;;;0.47;0.30;;;18.10;99.90;;;;;;4995656;28;20406;-76
2022/07/16 08:37:10;;;;;;;1.35;0.50;;;18.10;99.90;;;;;;4995262;28;20034;-76
2022/07/16 08:39:42;;;;;;;0.68;0.38;;;18.30;99.90;;;;;;4995626;28;20073;-76
2022/07/16 08:42:10;;;;;;;1.52;0.60;;;18.60;99.90;;;;;;4995327;28;20053;-76
2022/07/16 08:44:39;;;;;;;0.95;0.57;;;18.60;99.90;;;;;;5011839;28;20447;-75
2022/07/16 08:47:06;;;;;;;0.20;0.20;;;18.80;99.90;;;;;;5011720;28;20077;-76
2022/07/16 08:49:32;;;;;;;1.98;0.50;;;18.80;99.90;;;;;;5012063;28;20041;-76
2022/07/16 08:52:00;;;;;;;0.38;0.30;;;18.40;99.90;;;;;;4995100;28;20084;-76
2022/07/16 08:54:29;;;;;;;0.40;0.40;;;18.60;99.90;;;;;;4995188;28;20052;-77
2022/07/16 08:56:55;;;;;;;0.25;0.25;;;18.30;99.90;;;;;;5011441;28;20050;-78
2022/07/16 08:59:21;;;;;;;1.13;0.57;;;18.30;99.90;;;;;;5011538;28;20045;-76
2022/07/16 09:01:47;;;;;;;0.35;0.32;;;18.50;99.90;;;;;;4995718;28;20394;-76
2022/07/16 09:04:13;;;;;;;1.75;0.40;;;18.40;99.90;;;;;;4995436;28;20053;-75
2022/07/16 09:06:39;;;;;;;0.57;0.30;;;18.50;99.90;;;;;;5011238;28;20045;-76
2022/07/16 09:09:05;;;;;;;0.70;0.40;;;18.70;99.90;;;;;;4995036;28;20042;-75
2022/07/16 09:11:33;;;;;;;0.65;0.45;;;18.80;99.90;;;;;;4995048;28;20038;-74
2022/07/16 09:14:09;;;;;;;3.00;0.47;;;18.60;99.90;;;;;;4997120;28;20084;-75
2022/07/16 09:16:37;;;;;;;4.80;0.40;;;18.50;99.90;;;;;;5014670;28;20049;-76
2022/07/16 09:19:10;;;;;;;0.90;0.55;;;18.40;99.90;;;;;;4998791;28;20471;-76
2022/07/16 09:21:37;;;;;;;0.20;0.20;;;18.50;99.90;;;;;;5014570;28;20042;-75
2022/07/16 09:24:03;;;;;;;2.35;0.30;;;18.30;99.90;;;;;;5014430;28;20048;-73
2022/07/16 09:26:29;;;;;;;1.35;0.30;;;18.10;99.90;;;;;;4981943;28;20087;-75
2022/07/16 09:28:55;;;;;;;1.08;0.43;;;18.20;99.90;;;;;;5001390;28;20045;-75
2022/07/16 09:31:36;;;;;;;1.38;0.30;;;18.20;99.90;;;;;;5001822;28;20436;-74
2022/07/16 09:34:04;;;;;;;2.72;0.35;;;18.00;99.90;;;;;;5018285;28;20080;-75
2022/07/16 09:36:30;;;;;;;1.15;0.43;;;18.00;99.90;;;;;;5018218;28;20462;-75
2022/07/16 09:38:55;;;;;;;1.05;0.50;;;17.90;99.90;;;;;;5001534;28;20150;-75
2022/07/16 09:41:22;;;;;;;1.17;0.30;;;17.80;99.90;;;;;;5001533;28;20045;-74
2022/07/16 09:43:48;;;;;;;0.55;0.15;;;17.70;99.90;;;;;;5001477;28;20091;-74
2022/07/16 09:46:24;;;;;;;6.13;0.43;;;17.80;99.90;;;;;;5017706;28;20386;-74
2022/07/16 09:48:51;;;;;;;1.35;0.60;;;18.20;99.90;;;;;;5001346;28;20033;-75
2022/07/16 09:51:22;;;;;;;0.63;0.40;;;18.50;99.90;;;;;;5017708;28;20084;-74
2022/07/16 09:53:50;;;;;;;1.17;0.52;;;18.80;99.90;;;;;;5001547;28;20595;-72
2022/07/16 09:56:18;;;;;;;0.55;0.32;;;18.90;99.90;;;;;;5001529;28;20489;-81
2022/07/16 09:58:47;;;;;;;3.30;0.38;;;19.20;99.90;;;;;;5017479;28;20049;-71
2022/07/16 10:01:13;;;;;;;1.35;0.45;;;19.30;99.90;;;;;;5001147;28;20044;-81
2022/07/16 10:03:39;;;;;;;0.73;0.28;;;19.00;99.90;;;;;;4985276;28;20056;-74
2022/07/16 10:06:04;;;;;;;0.55;0.28;;;18.80;99.90;;;;;;4984779;28;20041;-74
2022/07/16 10:08:31;;;;;;;1.08;0.30;;;18.50;99.90;;;;;;5017611;28;20063;-82
2022/07/16 10:10:57;;;;;;;0.90;0.40;;;18.60;99.90;;;;;;5000973;28;20034;-74
2022/07/16 10:13:26;;;;;;;1.85;0.47;;;18.90;99.90;;;;;;5000996;28;20124;-73
2022/07/16 10:15:53;;;;;;;0.55;0.32;;;;;;;;;;5017130;28;20057;-79
2022/07/16 10:18:38;;;;;;;0.20;0.20;;;19.70;99.90;;;;;;5017467;28;20401;-83
2022/07/16 10:21:19;;;;;;;0.25;0.25;;;19.60;99.90;;;;;;5000767;28;20050;-74
2022/07/16 10:23:48;;;;;;;0.73;0.30;;;19.40;99.90;;;;;;5017159;28;20120;-81
2022/07/16 10:26:20;;;;;;;0.60;0.40;;;19.20;99.90;;;;;;5000921;28;20092;-75
2022/07/16 10:28:54;;;;;;;2.67;0.47;;;18.90;99.90;;;;;;5000701;28;20052;-76
2022/07/16 10:31:41;;;;;;;0.47;0.30;;;19.00;99.90;;;;;;4984512;28;20044;-75
2022/07/16 10:34:13;;;;;;;1.25;0.52;;;19.20;99.90;;;;;;4987911;28;20045;-74
2022/07/16 10:36:54;;;;;;;1.85;0.73;;;19.20;99.90;;;;;;5000919;28;20052;-74
2022/07/16 10:39:22;;;;;;;0.77;0.30;;;19.30;99.90;;;;;;5000918;28;20506;-81
2022/07/16 10:41:54;;;;;;;0.43;0.38;;;19.40;99.90;;;;;;5018082;28;20041;-82
2022/07/16 10:44:22;;;;;;;0.22;0.20;;;19.50;99.90;;;;;;5001915;28;20096;-82
2022/07/16 10:46:52;;;;;;;0.20;0.20;;;19.60;99.90;;;;;;5018878;28;20417;-82
2022/07/16 10:49:18;;;;;;;0.77;0.38;;;19.70;99.90;;;;;;5019656;28;20401;-83
2022/07/16 10:52:05;;;;;;;3.92;0.50;;;19.70;99.90;;;;;;5017244;28;20049;-82
2022/07/16 10:54:39;;;;;;;0.55;0.30;;;19.80;99.90;;;;;;5017909;28;20049;-82
2022/07/16 10:57:07;;;;;;;0.52;0.30;;;19.90;99.90;;;;;;5000648;28;20039;-82
2022/07/16 10:59:39;;;;;;;0.30;0.30;;;20.00;99.90;;;;;;5001013;28;20053;-82
2022/07/16 11:02:07;;;;;;;0.50;0.25;;;19.90;99.90;;;;;;5000092;28;20088;-82
2022/07/16 11:04:38;;;;;;;1.00;0.30;;;19.80;99.90;;;;;;5016643;28;20045;-81
2022/07/16 11:07:12;;;;;;;1.10;0.50;;;19.80;99.90;;;;;;5000138;28;20072;-82
2022/07/16 11:09:40;;;;;;;1.48;0.50;;;19.90;99.90;;;;;;5000887;28;20048;-82
2022/07/16 11:12:17;;;;;;;1.08;0.50;;;19.80;99.90;;;;;;5016876;28;20401;-81
2022/07/16 11:14:51;;;;;;;0.63;0.38;;;19.80;99.90;;;;;;4999886;28;20064;-82
2022/07/16 11:17:21;;;;;;;0.32;0.30;;;19.90;99.90;;;;;;4999672;28;20045;-83
2022/07/16 11:19:50;;;;;;;2.08;0.28;;;20.00;99.90;;;;;;4999752;28;20044;-82
2022/07/16 11:22:17;;;;;;;0.55;0.40;;;19.90;99.90;;;;;;5016107;28;20514;-82
2022/07/16 11:24:51;;;;;;;0.47;0.30;;;19.90;99.90;;;;;;5016063;28;20147;-81
2022/07/16 11:27:18;;;;;;;0.93;0.40;;;19.90;99.90;;;;;;5016457;28;20051;-78
2022/07/16 11:29:44;;;;;;;2.25;0.40;;;20.20;99.90;;;;;;5015900;28;20042;-77
2022/07/16 11:32:14;;;;;;;0.75;0.32;;;;;;;;;;4983398;28;20095;-76
2022/07/16 11:34:40;;;;;;;;;;;20.70;99.90;;;;;;5016876;28;20389;-78
2022/07/16 11:37:06;;;;;;;1.77;0.52;;;20.60;99.90;;;;;;4999583;28;19917;-80
2022/07/16 11:39:32;;;;;;;0.47;0.32;;;20.20;99.90;;;;;;4983130;28;20041;-76
2022/07/16 11:41:59;;;;;;;0.20;0.20;;;19.90;99.90;;;;;;4983195;28;20048;-77
2022/07/16 11:44:31;;;;;;;1.00;0.20;;;19.80;99.90;;;;;;4967541;28;20041;-75
2022/07/16 11:46:59;;;;;;;0.20;0.20;;;20.10;99.90;;;;;;4999160;28;20102;-77
2022/07/16 11:49:29;;;;;;;0.40;0.30;;;20.40;99.90;;;;;;4999286;28;20075;-79
2022/07/16 11:51:58;;;;;;;0.50;0.50;;;20.50;99.90;;;;;;5015274;28;20091;-77
2022/07/16 11:54:26;;;;;;;3.03;0.30;;;20.20;99.70;;;;;;5015495;28;20409;-77
2022/07/16 11:56:53;;;;;;;1.25;0.35;;;20.10;99.90;;;;;;4983492;28;20045;-76
2022/07/16 11:59:24;;;;;;;0.47;0.30;;;19.90;99.90;;;;;;5015338;28;20052;-73
2022/07/16 12:02:02;;;;;;;1.55;0.30;;;20.00;99.90;;;;;;5015256;28;20128;-75
2022/07/16 12:04:42;;;;;;;0.35;0.35;;;20.20;99.90;;;;;;5015676;28;20049;-76
2022/07/16 12:07:12;;;;;;;0.88;0.50;;;20.20;99.90;;;;;;4999046;28;20048;-76
2022/07/16 12:09:45;;;;;;;1.15;0.32;;;20.30;99.90;;;;;;5015240;28;20037;-76
2022/07/16 12:12:17;;;;;;;1.10;0.40;;;20.20;99.90;;;;;;5015265;28;20047;-75
2022/07/16 12:14:46;;;;;;;1.55;0.50;;;20.00;99.90;;;;;;5011728;28;20062;-75
2022/07/16 12:17:22;;;;;;;3.20;0.45;;;19.90;99.90;;;;;;5012380;28;20045;-75
2022/07/16 12:20:12;;;;;;;0.47;0.30;;;19.70;99.90;;;;;;5012138;28;20061;-74
2022/07/16 12:22:59;;;;;;;0.68;0.25;;;19.70;99.90;;;;;;4995442;28;20088;-76
2022/07/16 12:25:28;;;;;;;0.22;0.22;;;20.00;99.90;;;;;;5011730;28;20081;-76
2022/07/16 12:27:57;;;;;;;0.25;0.22;;;20.20;99.90;;;;;;5011796;28;20057;-74
2022/07/16 12:30:33;;;;;;;3.20;0.35;;;20.20;99.90;;;;;;4995742;28;20042;-75
2022/07/16 12:33:00;;;;;;;1.85;0.40;;;20.30;99.90;;;;;;5011766;28;20076;-75
2022/07/16 12:35:49;;;;;;;1.27;0.35;;;20.00;99.90;;;;;;4995375;28;20045;-75
2022/07/16 12:38:37;;;;;;;1.20;0.38;;;20.20;99.90;;;;;;4995433;28;20057;-75
2022/07/16 12:41:06;;;;;;;0.85;0.40;;;20.00;99.90;;;;;;4995441;28;20045;-73
2022/07/16 12:43:32;;;;;;;1.38;0.47;;;19.90;99.90;;;;;;5011680;28;20401;-73
2022/07/16 12:45:59;;;;;;;1.35;0.50;;;20.00;99.90;;;;;;5011528;28;20037;-72
2022/07/16 12:48:27;;;;;;;1.35;0.40;;;20.20;99.70;;;;;;4995434;28;20042;-72
2022/07/16 12:50:54;;;;;;;1.45;0.35;;;20.40;99.70;;;;;;5011558;28;20125;-73
2022/07/16 12:53:20;;;;;;;0.70;0.47;;;20.30;99.90;;;;;;5011554;28;20550;-74
2022/07/16 12:58:48;;;;;;;0.57;0.40;;;19.80;99.90;;;;;;5011568;28;20129;-74
2022/07/16 13:01:15;;;;;;;1.60;0.30;;;19.70;99.90;;;;;;4996164;28;20049;-74
2022/07/16 13:03:42;;;;;;;4.97;0.40;;;19.90;99.90;;;;;;4999210;28;20045;-72
2022/07/16 13:06:08;;;;;;;2.10;0.50;;;20.30;99.90;;;;;;5015236;28;20045;-72
2022/07/16 13:08:36;;;;;;;1.63;0.47;;;20.50;99.90;;;;;;5015323;28;20042;-73
2022/07/16 13:11:02;;;;;;;0.63;0.40;;;20.40;99.90;;;;;;4998783;28;20042;-73